ASN logo
ASN Wikibase Occurrence # 221891
Last updated: 19 September 2020
This information is added by users of ASN. Neither ASN nor the Flight Safety Foundation are responsible for the completeness or correctness of this information. If you feel this information is incomplete or incorrect, you can submit corrected information.

Date:16-FEB-2019
Time:08:10 UTC
Type:Silhouette image of generic B738 model; specific model in this crash may look slightly different
Boeing 737-8GP (WL)
Owner/operator:Lion Air
Registration: PK-LPS
C/n / msn: 43209/7026
Fatalities:Fatalities: 0 / Occupants: 189
Other fatalities:0
Aircraft damage: Minor
Location:Pontianak-Supadio International Airport (PNK/WIOO) -   Indonesia
Phase: Landing
Nature:Passenger - Scheduled
Departure airport:Jakarta-Soekarno-Hatta International Airport (CGK/WIII)
Destination airport:Pontianak-Supadio Airport (PNK/WIOO)
Narrative:
Lion Air flight JT714, a Boeing 737-800, suffered a runway excursion after landing on runway 15 at Pontianak Airport in rain and poor visibility conditions. No injuries reported.
The aircraft rolled of the end of the runway and came to rest with the main landing gear just off the paved end of the runway.

Weather reported about the incident time (0810Z):
WIOO 160830Z 09005KT 0500 +TSRA FEW003CB BKN004 26/24 Q1010
WIOO 160800Z 21010KT 5000 -RA FEW011CB BKN012 28/24 Q1010 TEMPO FM0810 3000 TSRA
WIOO 160730Z 13003KT 9999 FEW012CB SCT013 31/24 Q1009

The aircraft was ferried to Batam for repairs on 22 March and resumed service on 7 July 2019.

Sources:

https://www.flightradar24.com/data/aircraft/pk-lps#1f845434
https://m.cnnindonesia.com/nasional/20190216160524-20-369876/pesawat-lion-air-tergelincir-di-pontianak-tak-ada-korban


Images:


Taken on Radin Inten II Airport Lampung,on September 29th 2018


Revision history:

Date/timeContributorUpdates
16-Feb-2019 09:28 harro Added
16-Feb-2019 09:30 harro Updated [Time, Cn, Embed code, Narrative]
16-Feb-2019 09:45 gabrielmiolo Updated [Total occupants, Source, Damage, Photo]
16-Feb-2019 09:46 harro Updated [Location, Photo]
16-Feb-2019 09:51 harro Updated [Narrative]
16-Feb-2019 12:07 Iceman 29 Updated [Embed code]
16-Feb-2019 12:33 gabrielmiolo Updated [Location, Embed code]
17-Feb-2019 11:04 harro Updated [Embed code]
17-Feb-2019 20:52 flyflyfly Updated [Embed code]
18-Feb-2019 19:40 gabrielmiolo Updated [Damage]
05-Feb-2020 20:44 harro Updated [Narrative]

Corrections or additions? ... Edit this accident description